sensor_id;sensor_type;location;lat;lon;timestamp;P1;durP1;ratioP1;P2;durP2;ratioP2
4323;SDS011;2175;51.018;6.994;2023-10-19T00:00:34;12.20;;;9.40;;
4323;SDS011;2175;51.018;6.994;2023-10-19T00:03:10;12.37;;;11.00;;
4323;SDS011;2175;51.018;6.994;2023-10-19T00:05:36;12.53;;;10.00;;
4323;SDS011;2175;51.018;6.994;2023-10-19T00:08:02;14.40;;;10.53;;
4323;SDS011;2175;51.018;6.994;2023-10-19T00:10:38;13.30;;;10.50;;
4323;SDS011;2175;51.018;6.994;2023-10-19T00:13:05;14.37;;;11.27;;
4323;SDS011;2175;51.018;6.994;2023-10-19T00:15:33;14.43;;;10.83;;
4323;SDS011;2175;51.018;6.994;2023-10-19T00:18:02;14.03;;;10.80;;
4323;SDS011;2175;51.018;6.994;2023-10-19T00:20:41;17.93;;;11.30;;
4323;SDS011;2175;51.018;6.994;2023-10-19T00:23:13;12.97;;;10.20;;
4323;SDS011;2175;51.018;6.994;2023-10-19T00:25:43;15.50;;;11.40;;
4323;SDS011;2175;51.018;6.994;2023-10-19T00:28:14;13.23;;;11.13;;
4323;SDS011;2175;51.018;6.994;2023-10-19T00:30:42;18.97;;;13.00;;
4323;SDS011;2175;51.018;6.994;2023-10-19T00:33:10;12.90;;;11.30;;
4323;SDS011;2175;51.018;6.994;2023-10-19T00:35:46;14.40;;;11.13;;
4323;SDS011;2175;51.018;6.994;2023-10-19T00:38:24;17.17;;;12.87;;
4323;SDS011;2175;51.018;6.994;2023-10-19T00:41:04;16.43;;;11.63;;
4323;SDS011;2175;51.018;6.994;2023-10-19T00:43:31;14.03;;;11.00;;
4323;SDS011;2175;51.018;6.994;2023-10-19T00:46:08;14.37;;;11.70;;
4323;SDS011;2175;51.018;6.994;2023-10-19T00:48:52;18.53;;;12.80;;
4323;SDS011;2175;51.018;6.994;2023-10-19T00:51:22;17.07;;;11.80;;
4323;SDS011;2175;51.018;6.994;2023-10-19T00:53:55;13.03;;;11.17;;
4323;SDS011;2175;51.018;6.994;2023-10-19T00:56:22;15.13;;;11.60;;
4323;SDS011;2175;51.018;6.994;2023-10-19T00:58:53;16.70;;;12.40;;
4323;SDS011;2175;51.018;6.994;2023-10-19T01:01:25;17.23;;;12.77;;
4323;SDS011;2175;51.018;6.994;2023-10-19T01:03:53;14.83;;;11.77;;
4323;SDS011;2175;51.018;6.994;2023-10-19T01:06:22;16.50;;;12.40;;
4323;SDS011;2175;51.018;6.994;2023-10-19T01:08:48;15.50;;;11.33;;
4323;SDS011;2175;51.018;6.994;2023-10-19T01:11:16;19.80;;;11.77;;
4323;SDS011;2175;51.018;6.994;2023-10-19T01:13:46;17.60;;;12.10;;
4323;SDS011;2175;51.018;6.994;2023-10-19T01:16:13;16.80;;;12.90;;
4323;SDS011;2175;51.018;6.994;2023-10-19T01:18:49;13.30;;;11.20;;
4323;SDS011;2175;51.018;6.994;2023-10-19T01:21:18;15.73;;;11.50;;
4323;SDS011;2175;51.018;6.994;2023-10-19T01:23:46;14.23;;;11.80;;
4323;SDS011;2175;51.018;6.994;2023-10-19T01:26:13;18.07;;;12.30;;
4323;SDS011;2175;51.018;6.994;2023-10-19T01:28:46;15.70;;;12.40;;
4323;SDS011;2175;51.018;6.994;2023-10-19T01:31:16;15.70;;;12.77;;
4323;SDS011;2175;51.018;6.994;2023-10-19T01:33:55;13.10;;;11.57;;
4323;SDS011;2175;51.018;6.994;2023-10-19T01:36:22;15.07;;;11.70;;
4323;SDS011;2175;51.018;6.994;2023-10-19T01:38:48;14.40;;;11.90;;
4323;SDS011;2175;51.018;6.994;2023-10-19T01:41:18;15.67;;;10.90;;
4323;SDS011;2175;51.018;6.994;2023-10-19T01:43:46;15.73;;;11.47;;
4323;SDS011;2175;51.018;6.994;2023-10-19T01:46:14;14.47;;;10.80;;
4323;SDS011;2175;51.018;6.994;2023-10-19T01:48:47;14.60;;;11.80;;
4323;SDS011;2175;51.018;6.994;2023-10-19T01:51:14;14.23;;;11.67;;
4323;SDS011;2175;51.018;6.994;2023-10-19T01:53:41;23.73;;;12.33;;
4323;SDS011;2175;51.018;6.994;2023-10-19T01:56:13;12.87;;;11.00;;
4323;SDS011;2175;51.018;6.994;2023-10-19T01:58:40;16.83;;;12.90;;
4323;SDS011;2175;51.018;6.994;2023-10-19T02:01:06;15.87;;;11.37;;
4323;SDS011;2175;51.018;6.994;2023-10-19T02:03:41;14.27;;;10.93;;
4323;SDS011;2175;51.018;6.994;2023-10-19T02:06:08;15.53;;;12.07;;
4323;SDS011;2175;51.018;6.994;2023-10-19T02:11:25;15.13;;;12.00;;
4323;SDS011;2175;51.018;6.994;2023-10-19T02:13:52;13.07;;;11.40;;
4323;SDS011;2175;51.018;6.994;2023-10-19T02:16:19;13.10;;;11.20;;
4323;SDS011;2175;51.018;6.994;2023-10-19T02:18:49;15.90;;;12.43;;
4323;SDS011;2175;51.018;6.994;2023-10-19T02:21:16;19.87;;;12.20;;
4323;SDS011;2175;51.018;6.994;2023-10-19T02:23:52;12.83;;;10.97;;
4323;SDS011;2175;51.018;6.994;2023-10-19T02:26:21;17.20;;;11.00;;
4323;SDS011;2175;51.018;6.994;2023-10-19T02:28:55;15.40;;;11.83;;
4323;SDS011;2175;51.018;6.994;2023-10-19T02:31:21;13.20;;;10.80;;
4323;SDS011;2175;51.018;6.994;2023-10-19T02:33:49;12.90;;;11.00;;
4323;SDS011;2175;51.018;6.994;2023-10-19T02:36:25;15.03;;;10.87;;
4323;SDS011;2175;51.018;6.994;2023-10-19T02:38:58;12.60;;;11.30;;
4323;SDS011;2175;51.018;6.994;2023-10-19T02:41:25;11.70;;;9.80;;
4323;SDS011;2175;51.018;6.994;2023-10-19T02:43:52;11.43;;;10.10;;
4323;SDS011;2175;51.018;6.994;2023-10-19T02:46:55;12.83;;;10.10;;
4323;SDS011;2175;51.018;6.994;2023-10-19T02:49:24;11.30;;;9.37;;
4323;SDS011;2175;51.018;6.994;2023-10-19T02:51:51;12.50;;;10.47;;
4323;SDS011;2175;51.018;6.994;2023-10-19T02:54:18;13.20;;;10.43;;
4323;SDS011;2175;51.018;6.994;2023-10-19T02:56:45;13.87;;;9.73;;
4323;SDS011;2175;51.018;6.994;2023-10-19T02:59:15;12.30;;;10.10;;
4323;SDS011;2175;51.018;6.994;2023-10-19T03:01:41;14.70;;;9.20;;
4323;SDS011;2175;51.018;6.994;2023-10-19T03:04:11;14.73;;;9.70;;
4323;SDS011;2175;51.018;6.994;2023-10-19T03:06:37;15.20;;;10.50;;
4323;SDS011;2175;51.018;6.994;2023-10-19T03:09:06;12.93;;;9.90;;
4323;SDS011;2175;51.018;6.994;2023-10-19T03:11:41;11.20;;;9.40;;
4323;SDS011;2175;51.018;6.994;2023-10-19T03:14:09;13.37;;;9.90;;
4323;SDS011;2175;51.018;6.994;2023-10-19T03:16:36;13.37;;;10.33;;
4323;SDS011;2175;51.018;6.994;2023-10-19T03:19:02;12.07;;;9.87;;
4323;SDS011;2175;51.018;6.994;2023-10-19T03:21:29;13.50;;;9.90;;
4323;SDS011;2175;51.018;6.994;2023-10-19T03:23:59;10.80;;;9.00;;
4323;SDS011;2175;51.018;6.994;2023-10-19T03:26:38;10.80;;;8.70;;
4323;SDS011;2175;51.018;6.994;2023-10-19T03:29:08;10.33;;;8.50;;
4323;SDS011;2175;51.018;6.994;2023-10-19T03:31:41;13.70;;;9.83;;
4323;SDS011;2175;51.018;6.994;2023-10-19T03:34:11;12.60;;;9.10;;
4323;SDS011;2175;51.018;6.994;2023-10-19T03:36:43;11.97;;;9.40;;
4323;SDS011;2175;51.018;6.994;2023-10-19T03:39:10;13.37;;;9.40;;
4323;SDS011;2175;51.018;6.994;2023-10-19T03:41:37;12.13;;;9.03;;
4323;SDS011;2175;51.018;6.994;2023-10-19T03:44:07;10.30;;;8.80;;
4323;SDS011;2175;51.018;6.994;2023-10-19T03:46:38;11.80;;;9.07;;
4323;SDS011;2175;51.018;6.994;2023-10-19T03:49:17;9.43;;;7.87;;
4323;SDS011;2175;51.018;6.994;2023-10-19T03:51:44;10.13;;;8.43;;
4323;SDS011;2175;51.018;6.994;2023-10-19T03:54:26;10.50;;;8.10;;
4323;SDS011;2175;51.018;6.994;2023-10-19T03:56:52;9.77;;;8.57;;
4323;SDS011;2175;51.018;6.994;2023-10-19T03:59:19;9.00;;;8.10;;
4323;SDS011;2175;51.018;6.994;2023-10-19T04:01:45;8.90;;;7.77;;
4323;SDS011;2175;51.018;6.994;2023-10-19T04:04:12;10.67;;;7.83;;
4323;SDS011;2175;51.018;6.994;2023-10-19T04:06:38;11.70;;;8.30;;
4323;SDS011;2175;51.018;6.994;2023-10-19T04:09:05;10.83;;;8.10;;
4323;SDS011;2175;51.018;6.994;2023-10-19T04:11:34;8.43;;;7.40;;
4323;SDS011;2175;51.018;6.994;2023-10-19T04:14:29;12.30;;;8.13;;
4323;SDS011;2175;51.018;6.994;2023-10-19T04:16:55;9.27;;;7.43;;
4323;SDS011;2175;51.018;6.994;2023-10-19T04:19:21;9.33;;;7.43;;
4323;SDS011;2175;51.018;6.994;2023-10-19T04:21:47;11.93;;;7.90;;
4323;SDS011;2175;51.018;6.994;2023-10-19T04:24:15;13.83;;;7.43;;
4323;SDS011;2175;51.018;6.994;2023-10-19T04:26:44;8.37;;;7.33;;
4323;SDS011;2175;51.018;6.994;2023-10-19T04:29:10;13.33;;;6.87;;
4323;SDS011;2175;51.018;6.994;2023-10-19T04:31:39;9.90;;;7.00;;
4323;SDS011;2175;51.018;6.994;2023-10-19T04:34:20;8.00;;;7.10;;
4323;SDS011;2175;51.018;6.994;2023-10-19T04:36:47;9.97;;;7.17;;
4323;SDS011;2175;51.018;6.994;2023-10-19T04:39:13;7.70;;;6.90;;
4323;SDS011;2175;51.018;6.994;2023-10-19T04:41:39;9.10;;;6.50;;
4323;SDS011;2175;51.018;6.994;2023-10-19T04:44:06;10.40;;;6.27;;
4323;SDS011;2175;51.018;6.994;2023-10-19T04:46:35;9.73;;;7.13;;
4323;SDS011;2175;51.018;6.994;2023-10-19T04:49:02;9.07;;;7.00;;
4323;SDS011;2175;51.018;6.994;2023-10-19T04:51:29;10.73;;;7.17;;
4323;SDS011;2175;51.018;6.994;2023-10-19T04:53:59;9.57;;;7.20;;
4323;SDS011;2175;51.018;6.994;2023-10-19T04:56:25;11.00;;;6.70;;
4323;SDS011;2175;51.018;6.994;2023-10-19T04:58:51;9.30;;;7.50;;
4323;SDS011;2175;51.018;6.994;2023-10-19T05:01:17;8.37;;;6.87;;
4323;SDS011;2175;51.018;6.994;2023-10-19T05:03:43;7.70;;;6.90;;
4323;SDS011;2175;51.018;6.994;2023-10-19T05:06:10;10.37;;;7.00;;
4323;SDS011;2175;51.018;6.994;2023-10-19T05:08:36;7.30;;;6.50;;
4323;SDS011;2175;51.018;6.994;2023-10-19T05:11:02;14.03;;;7.60;;
4323;SDS011;2175;51.018;6.994;2023-10-19T05:13:29;14.47;;;8.60;;
4323;SDS011;2175;51.018;6.994;2023-10-19T05:15:56;13.97;;;7.27;;
4323;SDS011;2175;51.018;6.994;2023-10-19T05:18:24;9.73;;;6.87;;
4323;SDS011;2175;51.018;6.994;2023-10-19T05:20:50;8.70;;;6.77;;
4323;SDS011;2175;51.018;6.994;2023-10-19T05:23:20;9.10;;;6.83;;
4323;SDS011;2175;51.018;6.994;2023-10-19T05:25:46;10.83;;;7.13;;
4323;SDS011;2175;51.018;6.994;2023-10-19T05:28:12;12.47;;;6.73;;
4323;SDS011;2175;51.018;6.994;2023-10-19T05:30:39;9.90;;;7.00;;
4323;SDS011;2175;51.018;6.994;2023-10-19T05:33:05;10.43;;;6.70;;
4323;SDS011;2175;51.018;6.994;2023-10-19T05:35:31;10.77;;;7.50;;
4323;SDS011;2175;51.018;6.994;2023-10-19T05:38:01;9.47;;;6.53;;
4323;SDS011;2175;51.018;6.994;2023-10-19T05:40:28;14.13;;;7.30;;
4323;SDS011;2175;51.018;6.994;2023-10-19T05:42:57;7.37;;;5.60;;
4323;SDS011;2175;51.018;6.994;2023-10-19T05:45:23;7.77;;;6.60;;
4323;SDS011;2175;51.018;6.994;2023-10-19T05:50:39;7.40;;;6.50;;
4323;SDS011;2175;51.018;6.994;2023-10-19T05:55:52;9.60;;;5.67;;
4323;SDS011;2175;51.018;6.994;2023-10-19T05:58:18;7.73;;;6.07;;
4323;SDS011;2175;51.018;6.994;2023-10-19T06:00:45;9.57;;;6.20;;
4323;SDS011;2175;51.018;6.994;2023-10-19T06:03:11;14.03;;;6.43;;
4323;SDS011;2175;51.018;6.994;2023-10-19T06:05:37;10.63;;;6.30;;
4323;SDS011;2175;51.018;6.994;2023-10-19T06:08:03;8.07;;;6.13;;
4323;SDS011;2175;51.018;6.994;2023-10-19T06:10:29;15.50;;;6.40;;
4323;SDS011;2175;51.018;6.994;2023-10-19T06:12:57;8.73;;;5.53;;
4323;SDS011;2175;51.018;6.994;2023-10-19T06:15:23;8.60;;;5.90;;
4323;SDS011;2175;51.018;6.994;2023-10-19T06:17:49;13.80;;;5.80;;
4323;SDS011;2175;51.018;6.994;2023-10-19T06:20:16;9.07;;;6.40;;
4323;SDS011;2175;51.018;6.994;2023-10-19T06:22:49;8.40;;;6.43;;
4323;SDS011;2175;51.018;6.994;2023-10-19T06:25:18;12.90;;;6.10;;
4323;SDS011;2175;51.018;6.994;2023-10-19T06:27:46;8.10;;;6.10;;
4323;SDS011;2175;51.018;6.994;2023-10-19T06:30:13;7.70;;;6.43;;
4323;SDS011;2175;51.018;6.994;2023-10-19T06:32:43;14.20;;;6.63;;
4323;SDS011;2175;51.018;6.994;2023-10-19T06:35:09;12.30;;;6.90;;
4323;SDS011;2175;51.018;6.994;2023-10-19T06:37:36;9.93;;;6.80;;
4323;SDS011;2175;51.018;6.994;2023-10-19T06:40:02;8.90;;;7.20;;
4323;SDS011;2175;51.018;6.994;2023-10-19T06:42:28;12.07;;;6.80;;
4323;SDS011;2175;51.018;6.994;2023-10-19T06:44:56;10.30;;;7.33;;
4323;SDS011;2175;51.018;6.994;2023-10-19T06:47:22;11.83;;;7.67;;
4323;SDS011;2175;51.018;6.994;2023-10-19T06:49:48;12.60;;;7.27;;
4323;SDS011;2175;51.018;6.994;2023-10-19T06:52:15;11.20;;;7.63;;
4323;SDS011;2175;51.018;6.994;2023-10-19T06:54:41;11.93;;;7.63;;
4323;SDS011;2175;51.018;6.994;2023-10-19T06:57:07;15.30;;;8.23;;
4323;SDS011;2175;51.018;6.994;2023-10-19T06:59:34;12.63;;;8.10;;
4323;SDS011;2175;51.018;6.994;2023-10-19T07:02:00;8.90;;;7.80;;
4323;SDS011;2175;51.018;6.994;2023-10-19T07:04:26;12.77;;;7.77;;
4323;SDS011;2175;51.018;6.994;2023-10-19T07:06:53;11.67;;;7.93;;
4323;SDS011;2175;51.018;6.994;2023-10-19T07:09:19;20.33;;;7.23;;
4323;SDS011;2175;51.018;6.994;2023-10-19T07:11:46;16.17;;;9.60;;
4323;SDS011;2175;51.018;6.994;2023-10-19T07:14:12;12.47;;;7.53;;
4323;SDS011;2175;51.018;6.994;2023-10-19T07:16:39;13.30;;;7.90;;
4323;SDS011;2175;51.018;6.994;2023-10-19T07:19:06;15.77;;;9.60;;
4323;SDS011;2175;51.018;6.994;2023-10-19T07:21:34;11.80;;;9.13;;
4323;SDS011;2175;51.018;6.994;2023-10-19T07:24:02;16.20;;;8.80;;
4323;SDS011;2175;51.018;6.994;2023-10-19T07:26:31;15.00;;;9.30;;
4323;SDS011;2175;51.018;6.994;2023-10-19T07:28:59;15.83;;;8.90;;
4323;SDS011;2175;51.018;6.994;2023-10-19T07:31:25;12.30;;;8.80;;
4323;SDS011;2175;51.018;6.994;2023-10-19T07:33:54;16.40;;;9.40;;
4323;SDS011;2175;51.018;6.994;2023-10-19T07:36:23;11.03;;;8.77;;
4323;SDS011;2175;51.018;6.994;2023-10-19T07:38:50;11.67;;;8.00;;
4323;SDS011;2175;51.018;6.994;2023-10-19T07:41:16;12.10;;;8.80;;
4323;SDS011;2175;51.018;6.994;2023-10-19T07:43:42;13.03;;;8.00;;
4323;SDS011;2175;51.018;6.994;2023-10-19T07:46:09;13.83;;;8.83;;
4323;SDS011;2175;51.018;6.994;2023-10-19T07:48:36;9.93;;;8.30;;
4323;SDS011;2175;51.018;6.994;2023-10-19T07:51:03;15.93;;;9.37;;
4323;SDS011;2175;51.018;6.994;2023-10-19T07:53:29;13.50;;;9.20;;
4323;SDS011;2175;51.018;6.994;2023-10-19T07:55:55;10.50;;;8.27;;
4323;SDS011;2175;51.018;6.994;2023-10-19T07:58:22;15.40;;;8.60;;
4323;SDS011;2175;51.018;6.994;2023-10-19T08:00:48;10.83;;;8.57;;
4323;SDS011;2175;51.018;6.994;2023-10-19T08:03:14;14.53;;;8.70;;
4323;SDS011;2175;51.018;6.994;2023-10-19T08:05:41;11.33;;;8.13;;
4323;SDS011;2175;51.018;6.994;2023-10-19T08:08:07;13.27;;;9.07;;
4323;SDS011;2175;51.018;6.994;2023-10-19T08:10:34;14.43;;;8.90;;
4323;SDS011;2175;51.018;6.994;2023-10-19T08:13:00;13.80;;;8.80;;
4323;SDS011;2175;51.018;6.994;2023-10-19T08:15:26;12.43;;;7.90;;
4323;SDS011;2175;51.018;6.994;2023-10-19T08:17:55;13.10;;;8.10;;
4323;SDS011;2175;51.018;6.994;2023-10-19T08:20:21;13.30;;;7.67;;
4323;SDS011;2175;51.018;6.994;2023-10-19T08:22:57;16.80;;;7.67;;
4323;SDS011;2175;51.018;6.994;2023-10-19T08:25:23;15.63;;;7.87;;
4323;SDS011;2175;51.018;6.994;2023-10-19T08:27:52;14.43;;;8.40;;
4323;SDS011;2175;51.018;6.994;2023-10-19T08:30:21;11.87;;;8.20;;
4323;SDS011;2175;51.018;6.994;2023-10-19T08:32:48;10.43;;;8.13;;
4323;SDS011;2175;51.018;6.994;2023-10-19T08:35:18;14.23;;;8.80;;
4323;SDS011;2175;51.018;6.994;2023-10-19T08:37:51;9.70;;;6.83;;
4323;SDS011;2175;51.018;6.994;2023-10-19T08:40:17;19.73;;;7.20;;
4323;SDS011;2175;51.018;6.994;2023-10-19T08:42:44;11.80;;;6.73;;
4323;SDS011;2175;51.018;6.994;2023-10-19T08:45:11;10.60;;;7.27;;
4323;SDS011;2175;51.018;6.994;2023-10-19T08:48:00;11.10;;;7.33;;
4323;SDS011;2175;51.018;6.994;2023-10-19T08:50:27;8.93;;;5.50;;
4323;SDS011;2175;51.018;6.994;2023-10-19T08:52:54;10.90;;;6.00;;
4323;SDS011;2175;51.018;6.994;2023-10-19T08:55:20;10.27;;;5.70;;
4323;SDS011;2175;51.018;6.994;2023-10-19T08:57:48;11.00;;;6.00;;
4323;SDS011;2175;51.018;6.994;2023-10-19T09:00:14;10.70;;;5.20;;
4323;SDS011;2175;51.018;6.994;2023-10-19T09:02:44;17.03;;;5.00;;
4323;SDS011;2175;51.018;6.994;2023-10-19T09:05:10;9.67;;;4.70;;
4323;SDS011;2175;51.018;6.994;2023-10-19T09:07:57;7.43;;;3.83;;
4323;SDS011;2175;51.018;6.994;2023-10-19T09:10:25;10.03;;;4.47;;
4323;SDS011;2175;51.018;6.994;2023-10-19T09:15:30;14.23;;;4.00;;
4323;SDS011;2175;51.018;6.994;2023-10-19T09:20:45;8.90;;;3.57;;
4323;SDS011;2175;51.018;6.994;2023-10-19T09:23:18;8.50;;;3.40;;
4323;SDS011;2175;51.018;6.994;2023-10-19T09:25:44;6.93;;;3.40;;
4323;SDS011;2175;51.018;6.994;2023-10-19T09:28:10;7.33;;;3.50;;
4323;SDS011;2175;51.018;6.994;2023-10-19T09:30:38;11.37;;;3.93;;
4323;SDS011;2175;51.018;6.994;2023-10-19T09:33:05;6.63;;;3.57;;
4323;SDS011;2175;51.018;6.994;2023-10-19T09:35:32;9.20;;;3.00;;
4323;SDS011;2175;51.018;6.994;2023-10-19T09:37:58;16.50;;;3.60;;
4323;SDS011;2175;51.018;6.994;2023-10-19T09:40:25;10.67;;;3.37;;
4323;SDS011;2175;51.018;6.994;2023-10-19T09:42:54;11.40;;;3.10;;
4323;SDS011;2175;51.018;6.994;2023-10-19T09:45:22;9.90;;;3.00;;
4323;SDS011;2175;51.018;6.994;2023-10-19T09:47:50;10.53;;;2.80;;
4323;SDS011;2175;51.018;6.994;2023-10-19T09:50:19;6.90;;;2.77;;
4323;SDS011;2175;51.018;6.994;2023-10-19T09:52:45;5.97;;;2.37;;
4323;SDS011;2175;51.018;6.994;2023-10-19T09:55:26;10.20;;;3.13;;
4323;SDS011;2175;51.018;6.994;2023-10-19T09:58:02;17.30;;;3.50;;
4323;SDS011;2175;51.018;6.994;2023-10-19T10:00:29;13.00;;;3.40;;
4323;SDS011;2175;51.018;6.994;2023-10-19T10:02:57;9.13;;;2.50;;
4323;SDS011;2175;51.018;6.994;2023-10-19T10:10:46;11.83;;;2.77;;
4323;SDS011;2175;51.018;6.994;2023-10-19T10:15:55;8.57;;;2.67;;
4323;SDS011;2175;51.018;6.994;2023-10-19T10:18:26;11.87;;;3.10;;
4323;SDS011;2175;51.018;6.994;2023-10-19T10:21:07;9.63;;;2.60;;
4323;SDS011;2175;51.018;6.994;2023-10-19T10:23:37;8.40;;;2.60;;
4323;SDS011;2175;51.018;6.994;2023-10-19T10:26:05;12.27;;;3.00;;
4323;SDS011;2175;51.018;6.994;2023-10-19T10:28:33;8.53;;;2.80;;
4323;SDS011;2175;51.018;6.994;2023-10-19T10:31:11;11.63;;;2.87;;
4323;SDS011;2175;51.018;6.994;2023-10-19T10:33:50;10.60;;;3.23;;
4323;SDS011;2175;51.018;6.994;2023-10-19T10:36:17;5.70;;;2.40;;
4323;SDS011;2175;51.018;6.994;2023-10-19T10:38:45;14.13;;;2.77;;
4323;SDS011;2175;51.018;6.994;2023-10-19T10:41:11;15.00;;;2.90;;
4323;SDS011;2175;51.018;6.994;2023-10-19T10:43:50;6.67;;;2.67;;
4323;SDS011;2175;51.018;6.994;2023-10-19T10:46:21;11.50;;;2.47;;
4323;SDS011;2175;51.018;6.994;2023-10-19T10:48:47;10.70;;;2.93;;
4323;SDS011;2175;51.018;6.994;2023-10-19T10:51:23;10.30;;;2.80;;
4323;SDS011;2175;51.018;6.994;2023-10-19T10:53:53;9.67;;;2.97;;
4323;SDS011;2175;51.018;6.994;2023-10-19T10:56:20;10.83;;;2.80;;
4323;SDS011;2175;51.018;6.994;2023-10-19T10:58:46;11.63;;;2.73;;
4323;SDS011;2175;51.018;6.994;2023-10-19T11:01:13;7.43;;;3.10;;
4323;SDS011;2175;51.018;6.994;2023-10-19T11:03:42;13.30;;;3.33;;
4323;SDS011;2175;51.018;6.994;2023-10-19T11:06:11;7.90;;;2.77;;
4323;SDS011;2175;51.018;6.994;2023-10-19T11:08:38;10.40;;;3.37;;
4323;SDS011;2175;51.018;6.994;2023-10-19T11:11:06;13.63;;;3.10;;
4323;SDS011;2175;51.018;6.994;2023-10-19T11:13:32;9.90;;;3.00;;
4323;SDS011;2175;51.018;6.994;2023-10-19T11:15:59;16.97;;;3.23;;
4323;SDS011;2175;51.018;6.994;2023-10-19T11:18:36;12.13;;;2.90;;
4323;SDS011;2175;51.018;6.994;2023-10-19T11:21:11;9.10;;;3.03;;
4323;SDS011;2175;51.018;6.994;2023-10-19T11:23:47;9.60;;;2.77;;
4323;SDS011;2175;51.018;6.994;2023-10-19T11:26:18;10.03;;;3.30;;
4323;SDS011;2175;51.018;6.994;2023-10-19T11:28:44;11.50;;;2.70;;
4323;SDS011;2175;51.018;6.994;2023-10-19T11:31:20;14.47;;;3.67;;
4323;SDS011;2175;51.018;6.994;2023-10-19T11:33:52;7.03;;;3.10;;
4323;SDS011;2175;51.018;6.994;2023-10-19T11:36:20;9.80;;;2.90;;
4323;SDS011;2175;51.018;6.994;2023-10-19T11:38:47;12.77;;;3.10;;
4323;SDS011;2175;51.018;6.994;2023-10-19T11:41:14;11.03;;;3.30;;
4323;SDS011;2175;51.018;6.994;2023-10-19T11:43:41;12.23;;;3.13;;
4323;SDS011;2175;51.018;6.994;2023-10-19T11:46:07;8.87;;;3.00;;
4323;SDS011;2175;51.018;6.994;2023-10-19T11:48:34;11.83;;;3.67;;
4323;SDS011;2175;51.018;6.994;2023-10-19T11:51:00;9.10;;;2.70;;
4323;SDS011;2175;51.018;6.994;2023-10-19T11:53:29;10.70;;;3.17;;
4323;SDS011;2175;51.018;6.994;2023-10-19T11:55:58;7.47;;;3.37;;
4323;SDS011;2175;51.018;6.994;2023-10-19T11:58:24;11.90;;;3.57;;
4323;SDS011;2175;51.018;6.994;2023-10-19T12:00:50;9.33;;;3.17;;
4323;SDS011;2175;51.018;6.994;2023-10-19T12:03:16;9.23;;;3.00;;
4323;SDS011;2175;51.018;6.994;2023-10-19T12:05:44;6.40;;;2.50;;
4323;SDS011;2175;51.018;6.994;2023-10-19T12:08:10;9.83;;;2.80;;
4323;SDS011;2175;51.018;6.994;2023-10-19T12:10:36;11.13;;;3.03;;
4323;SDS011;2175;51.018;6.994;2023-10-19T12:13:03;10.30;;;3.10;;
4323;SDS011;2175;51.018;6.994;2023-10-19T12:15:30;16.47;;;3.20;;
4323;SDS011;2175;51.018;6.994;2023-10-19T12:17:57;9.43;;;3.10;;
4323;SDS011;2175;51.018;6.994;2023-10-19T12:20:23;8.47;;;3.00;;
4323;SDS011;2175;51.018;6.994;2023-10-19T12:22:49;11.37;;;3.53;;
4323;SDS011;2175;51.018;6.994;2023-10-19T12:25:21;14.93;;;3.90;;
4323;SDS011;2175;51.018;6.994;2023-10-19T12:28:00;9.00;;;2.67;;
4323;SDS011;2175;51.018;6.994;2023-10-19T12:30:29;5.90;;;2.77;;
4323;SDS011;2175;51.018;6.994;2023-10-19T12:33:01;8.23;;;2.77;;
4323;SDS011;2175;51.018;6.994;2023-10-19T12:35:29;9.50;;;3.00;;
4323;SDS011;2175;51.018;6.994;2023-10-19T12:38:28;8.60;;;2.93;;
4323;SDS011;2175;51.018;6.994;2023-10-19T12:40:54;8.00;;;2.70;;
4323;SDS011;2175;51.018;6.994;2023-10-19T12:43:20;12.60;;;3.30;;
4323;SDS011;2175;51.018;6.994;2023-10-19T12:45:50;7.80;;;2.80;;
4323;SDS011;2175;51.018;6.994;2023-10-19T12:48:18;11.73;;;2.80;;
4323;SDS011;2175;51.018;6.994;2023-10-19T12:50:45;12.27;;;3.80;;
4323;SDS011;2175;51.018;6.994;2023-10-19T12:53:11;10.30;;;3.00;;
4323;SDS011;2175;51.018;6.994;2023-10-19T12:55:38;17.70;;;3.27;;
4323;SDS011;2175;51.018;6.994;2023-10-19T12:58:05;9.77;;;3.37;;
4323;SDS011;2175;51.018;6.994;2023-10-19T13:00:37;7.43;;;2.80;;
4323;SDS011;2175;51.018;6.994;2023-10-19T13:03:09;8.53;;;3.00;;
4323;SDS011;2175;51.018;6.994;2023-10-19T13:05:38;10.90;;;3.70;;
4323;SDS011;2175;51.018;6.994;2023-10-19T13:08:06;10.40;;;2.97;;
4323;SDS011;2175;51.018;6.994;2023-10-19T13:10:32;14.63;;;3.17;;
4323;SDS011;2175;51.018;6.994;2023-10-19T13:13:00;9.90;;;2.70;;
4323;SDS011;2175;51.018;6.994;2023-10-19T13:15:28;14.20;;;3.43;;
4323;SDS011;2175;51.018;6.994;2023-10-19T13:17:56;7.30;;;3.13;;
4323;SDS011;2175;51.018;6.994;2023-10-19T13:20:23;8.70;;;2.83;;
4323;SDS011;2175;51.018;6.994;2023-10-19T13:22:50;9.43;;;3.10;;
4323;SDS011;2175;51.018;6.994;2023-10-19T13:25:16;10.17;;;3.37;;
4323;SDS011;2175;51.018;6.994;2023-10-19T13:27:45;11.37;;;3.37;;
4323;SDS011;2175;51.018;6.994;2023-10-19T13:30:11;7.90;;;2.80;;
4323;SDS011;2175;51.018;6.994;2023-10-19T13:32:39;12.30;;;3.30;;
4323;SDS011;2175;51.018;6.994;2023-10-19T13:35:07;10.30;;;2.87;;
4323;SDS011;2175;51.018;6.994;2023-10-19T13:37:33;15.00;;;3.63;;
4323;SDS011;2175;51.018;6.994;2023-10-19T13:39:59;10.77;;;3.03;;
4323;SDS011;2175;51.018;6.994;2023-10-19T13:42:25;9.10;;;3.30;;
4323;SDS011;2175;51.018;6.994;2023-10-19T13:44:51;8.70;;;3.40;;
4323;SDS011;2175;51.018;6.994;2023-10-19T13:47:17;10.37;;;3.30;;
4323;SDS011;2175;51.018;6.994;2023-10-19T13:49:43;13.37;;;3.03;;
4323;SDS011;2175;51.018;6.994;2023-10-19T13:52:10;7.43;;;3.30;;
4323;SDS011;2175;51.018;6.994;2023-10-19T13:54:37;9.70;;;3.13;;
4323;SDS011;2175;51.018;6.994;2023-10-19T13:57:03;8.07;;;3.27;;
4323;SDS011;2175;51.018;6.994;2023-10-19T13:59:29;10.47;;;3.50;;
4323;SDS011;2175;51.018;6.994;2023-10-19T14:01:58;10.70;;;3.00;;
4323;SDS011;2175;51.018;6.994;2023-10-19T14:04:24;9.73;;;3.70;;
4323;SDS011;2175;51.018;6.994;2023-10-19T14:06:51;14.20;;;3.67;;
4323;SDS011;2175;51.018;6.994;2023-10-19T14:09:18;12.20;;;4.10;;
4323;SDS011;2175;51.018;6.994;2023-10-19T14:11:44;14.40;;;3.83;;
4323;SDS011;2175;51.018;6.994;2023-10-19T14:14:11;9.30;;;3.50;;
4323;SDS011;2175;51.018;6.994;2023-10-19T14:16:37;10.00;;;3.87;;
4323;SDS011;2175;51.018;6.994;2023-10-19T14:19:04;11.93;;;4.40;;
4323;SDS011;2175;51.018;6.994;2023-10-19T14:21:30;12.00;;;3.60;;
4323;SDS011;2175;51.018;6.994;2023-10-19T14:23:57;12.30;;;4.00;;
4323;SDS011;2175;51.018;6.994;2023-10-19T14:26:23;12.93;;;3.40;;
4323;SDS011;2175;51.018;6.994;2023-10-19T14:28:49;12.10;;;3.93;;
4323;SDS011;2175;51.018;6.994;2023-10-19T14:31:15;9.00;;;3.20;;
4323;SDS011;2175;51.018;6.994;2023-10-19T14:33:41;15.90;;;4.00;;
4323;SDS011;2175;51.018;6.994;2023-10-19T14:36:08;12.30;;;4.30;;
4323;SDS011;2175;51.018;6.994;2023-10-19T14:38:35;9.80;;;3.37;;
4323;SDS011;2175;51.018;6.994;2023-10-19T14:41:03;13.67;;;4.10;;
4323;SDS011;2175;51.018;6.994;2023-10-19T14:43:30;8.93;;;3.50;;
4323;SDS011;2175;51.018;6.994;2023-10-19T14:45:56;11.13;;;4.30;;
4323;SDS011;2175;51.018;6.994;2023-10-19T14:48:22;12.90;;;3.43;;
4323;SDS011;2175;51.018;6.994;2023-10-19T14:50:49;9.20;;;3.80;;
4323;SDS011;2175;51.018;6.994;2023-10-19T14:53:16;11.80;;;3.80;;
4323;SDS011;2175;51.018;6.994;2023-10-19T14:55:43;11.00;;;3.50;;
4323;SDS011;2175;51.018;6.994;2023-10-19T14:58:10;11.70;;;3.80;;
4323;SDS011;2175;51.018;6.994;2023-10-19T15:00:37;19.67;;;3.43;;
4323;SDS011;2175;51.018;6.994;2023-10-19T15:03:07;10.93;;;4.07;;
4323;SDS011;2175;51.018;6.994;2023-10-19T15:05:33;12.60;;;4.00;;
4323;SDS011;2175;51.018;6.994;2023-10-19T15:08:01;13.10;;;3.73;;
4323;SDS011;2175;51.018;6.994;2023-10-19T15:10:27;10.83;;;3.80;;
4323;SDS011;2175;51.018;6.994;2023-10-19T15:12:53;11.07;;;4.07;;
4323;SDS011;2175;51.018;6.994;2023-10-19T15:15:21;13.67;;;4.20;;
4323;SDS011;2175;51.018;6.994;2023-10-19T15:17:47;11.80;;;4.10;;
4323;SDS011;2175;51.018;6.994;2023-10-19T15:20:15;7.27;;;3.70;;
4323;SDS011;2175;51.018;6.994;2023-10-19T15:22:42;8.00;;;3.70;;
4323;SDS011;2175;51.018;6.994;2023-10-19T15:25:08;11.70;;;4.13;;
4323;SDS011;2175;51.018;6.994;2023-10-19T15:27:42;18.63;;;4.50;;
4323;SDS011;2175;51.018;6.994;2023-10-19T15:30:09;15.83;;;4.60;;
4323;SDS011;2175;51.018;6.994;2023-10-19T15:32:40;15.23;;;4.30;;